sensor_id;sensor_type;location;lat;lon;timestamp;P1;durP1;ratioP1;P2;durP2;ratioP2
4323;SDS011;2175;51.018;6.994;2024-02-28T00:01:06;72.13;;;36.57;;
4323;SDS011;2175;51.018;6.994;2024-02-28T00:03:32;77.60;;;37.37;;
4323;SDS011;2175;51.018;6.994;2024-02-28T00:05:58;73.80;;;36.10;;
4323;SDS011;2175;51.018;6.994;2024-02-28T00:08:24;73.75;;;37.75;;
4323;SDS011;2175;51.018;6.994;2024-02-28T00:10:50;67.90;;;35.47;;
4323;SDS011;2175;51.018;6.994;2024-02-28T00:13:16;72.60;;;36.03;;
4323;SDS011;2175;51.018;6.994;2024-02-28T00:15:42;70.70;;;35.70;;
4323;SDS011;2175;51.018;6.994;2024-02-28T00:18:08;77.00;;;37.92;;
4323;SDS011;2175;51.018;6.994;2024-02-28T00:20:35;75.38;;;39.88;;
4323;SDS011;2175;51.018;6.994;2024-02-28T00:23:01;72.50;;;37.70;;
4323;SDS011;2175;51.018;6.994;2024-02-28T00:25:27;67.77;;;36.73;;
4323;SDS011;2175;51.018;6.994;2024-02-28T00:27:53;77.87;;;37.30;;
4323;SDS011;2175;51.018;6.994;2024-02-28T00:30:19;70.20;;;36.23;;
4323;SDS011;2175;51.018;6.994;2024-02-28T00:32:45;73.40;;;36.10;;
4323;SDS011;2175;51.018;6.994;2024-02-28T00:35:11;81.30;;;39.73;;
4323;SDS011;2175;51.018;6.994;2024-02-28T00:37:37;73.13;;;36.60;;
4323;SDS011;2175;51.018;6.994;2024-02-28T00:40:03;67.85;;;35.50;;
4323;SDS011;2175;51.018;6.994;2024-02-28T00:42:29;63.10;;;34.77;;
4323;SDS011;2175;51.018;6.994;2024-02-28T00:44:55;70.03;;;34.70;;
4323;SDS011;2175;51.018;6.994;2024-02-28T00:47:21;75.45;;;36.97;;
4323;SDS011;2175;51.018;6.994;2024-02-28T00:49:48;72.55;;;36.30;;
4323;SDS011;2175;51.018;6.994;2024-02-28T00:52:14;73.60;;;34.73;;
4323;SDS011;2175;51.018;6.994;2024-02-28T00:54:40;70.77;;;33.67;;
4323;SDS011;2175;51.018;6.994;2024-02-28T00:57:06;65.30;;;34.93;;
4323;SDS011;2175;51.018;6.994;2024-02-28T00:59:32;67.53;;;33.57;;
4323;SDS011;2175;51.018;6.994;2024-02-28T01:01:58;68.33;;;34.43;;
4323;SDS011;2175;51.018;6.994;2024-02-28T01:04:24;69.40;;;34.90;;
4323;SDS011;2175;51.018;6.994;2024-02-28T01:06:50;70.93;;;34.60;;
4323;SDS011;2175;51.018;6.994;2024-02-28T01:09:16;63.37;;;33.70;;
4323;SDS011;2175;51.018;6.994;2024-02-28T01:11:42;69.50;;;35.70;;
4323;SDS011;2175;51.018;6.994;2024-02-28T01:14:08;62.80;;;33.17;;
4323;SDS011;2175;51.018;6.994;2024-02-28T01:16:34;66.23;;;34.80;;
4323;SDS011;2175;51.018;6.994;2024-02-28T01:19:00;60.20;;;33.77;;
4323;SDS011;2175;51.018;6.994;2024-02-28T01:21:26;72.13;;;35.80;;
4323;SDS011;2175;51.018;6.994;2024-02-28T01:23:52;68.50;;;35.97;;
4323;SDS011;2175;51.018;6.994;2024-02-28T01:26:18;63.97;;;34.83;;
4323;SDS011;2175;51.018;6.994;2024-02-28T01:28:46;68.15;;;35.55;;
4323;SDS011;2175;51.018;6.994;2024-02-28T01:31:12;73.57;;;37.20;;
4323;SDS011;2175;51.018;6.994;2024-02-28T01:33:38;73.80;;;35.60;;
4323;SDS011;2175;51.018;6.994;2024-02-28T01:36:08;77.03;;;38.17;;
4323;SDS011;2175;51.018;6.994;2024-02-28T01:38:34;65.07;;;34.97;;
4323;SDS011;2175;51.018;6.994;2024-02-28T01:41:00;75.80;;;36.10;;
4323;SDS011;2175;51.018;6.994;2024-02-28T01:43:26;80.43;;;39.00;;
4323;SDS011;2175;51.018;6.994;2024-02-28T01:45:52;73.40;;;37.77;;
4323;SDS011;2175;51.018;6.994;2024-02-28T01:48:31;74.70;;;37.53;;
4323;SDS011;2175;51.018;6.994;2024-02-28T01:50:57;80.30;;;38.77;;
4323;SDS011;2175;51.018;6.994;2024-02-28T01:53:24;78.37;;;38.93;;
4323;SDS011;2175;51.018;6.994;2024-02-28T01:55:50;83.80;;;40.70;;
4323;SDS011;2175;51.018;6.994;2024-02-28T01:58:16;85.73;;;41.43;;
4323;SDS011;2175;51.018;6.994;2024-02-28T02:00:42;77.40;;;39.27;;
4323;SDS011;2175;51.018;6.994;2024-02-28T02:03:12;92.97;;;41.40;;
4323;SDS011;2175;51.018;6.994;2024-02-28T02:05:39;83.10;;;41.10;;
4323;SDS011;2175;51.018;6.994;2024-02-28T02:08:10;85.88;;;40.70;;
4323;SDS011;2175;51.018;6.994;2024-02-28T02:10:37;88.63;;;40.97;;
4323;SDS011;2175;51.018;6.994;2024-02-28T02:13:04;90.70;;;43.00;;
4323;SDS011;2175;51.018;6.994;2024-02-28T02:15:30;85.60;;;42.33;;
4323;SDS011;2175;51.018;6.994;2024-02-28T02:17:56;89.07;;;40.50;;
4323;SDS011;2175;51.018;6.994;2024-02-28T02:20:22;84.23;;;41.43;;
4323;SDS011;2175;51.018;6.994;2024-02-28T02:22:49;92.83;;;42.20;;
4323;SDS011;2175;51.018;6.994;2024-02-28T02:25:15;93.77;;;42.57;;
4323;SDS011;2175;51.018;6.994;2024-02-28T02:27:41;87.50;;;40.70;;
4323;SDS011;2175;51.018;6.994;2024-02-28T02:30:07;79.27;;;40.10;;
4323;SDS011;2175;51.018;6.994;2024-02-28T02:32:33;88.43;;;41.63;;
4323;SDS011;2175;51.018;6.994;2024-02-28T02:34:59;81.40;;;38.90;;
4323;SDS011;2175;51.018;6.994;2024-02-28T02:37:25;91.10;;;42.47;;
4323;SDS011;2175;51.018;6.994;2024-02-28T02:39:51;89.13;;;41.30;;
4323;SDS011;2175;51.018;6.994;2024-02-28T02:42:18;94.10;;;41.20;;
4323;SDS011;2175;51.018;6.994;2024-02-28T02:44:44;91.67;;;42.60;;
4323;SDS011;2175;51.018;6.994;2024-02-28T02:47:10;93.90;;;43.80;;
4323;SDS011;2175;51.018;6.994;2024-02-28T02:49:36;95.60;;;41.13;;
4323;SDS011;2175;51.018;6.994;2024-02-28T02:52:02;89.10;;;39.73;;
4323;SDS011;2175;51.018;6.994;2024-02-28T02:54:28;87.47;;;42.03;;
4323;SDS011;2175;51.018;6.994;2024-02-28T02:56:54;95.23;;;42.10;;
4323;SDS011;2175;51.018;6.994;2024-02-28T02:59:20;90.67;;;41.23;;
4323;SDS011;2175;51.018;6.994;2024-02-28T03:01:48;86.80;;;40.83;;
4323;SDS011;2175;51.018;6.994;2024-02-28T03:04:14;95.53;;;42.90;;
4323;SDS011;2175;51.018;6.994;2024-02-28T03:06:40;94.90;;;44.13;;
4323;SDS011;2175;51.018;6.994;2024-02-28T03:09:06;87.87;;;41.20;;
4323;SDS011;2175;51.018;6.994;2024-02-28T03:11:32;92.10;;;41.87;;
4323;SDS011;2175;51.018;6.994;2024-02-28T03:14:00;95.50;;;41.97;;
4323;SDS011;2175;51.018;6.994;2024-02-28T03:16:26;97.00;;;42.50;;
4323;SDS011;2175;51.018;6.994;2024-02-28T03:18:52;89.60;;;43.27;;
4323;SDS011;2175;51.018;6.994;2024-02-28T03:21:18;89.93;;;43.23;;
4323;SDS011;2175;51.018;6.994;2024-02-28T03:23:45;99.10;;;44.43;;
4323;SDS011;2175;51.018;6.994;2024-02-28T03:26:11;99.03;;;44.13;;
4323;SDS011;2175;51.018;6.994;2024-02-28T03:28:37;97.57;;;44.47;;
4323;SDS011;2175;51.018;6.994;2024-02-28T03:31:03;88.80;;;44.83;;
4323;SDS011;2175;51.018;6.994;2024-02-28T03:33:29;99.20;;;45.83;;
4323;SDS011;2175;51.018;6.994;2024-02-28T03:35:57;95.03;;;44.67;;
4323;SDS011;2175;51.018;6.994;2024-02-28T03:38:23;94.60;;;44.87;;
4323;SDS011;2175;51.018;6.994;2024-02-28T03:40:49;94.53;;;45.67;;
4323;SDS011;2175;51.018;6.994;2024-02-28T03:43:15;96.03;;;45.90;;
4323;SDS011;2175;51.018;6.994;2024-02-28T03:45:41;99.57;;;47.73;;
4323;SDS011;2175;51.018;6.994;2024-02-28T03:48:07;100.43;;;46.80;;
4323;SDS011;2175;51.018;6.994;2024-02-28T03:50:33;118.17;;;57.10;;
4323;SDS011;2175;51.018;6.994;2024-02-28T03:53:00;142.43;;;67.30;;
4323;SDS011;2175;51.018;6.994;2024-02-28T03:55:26;133.13;;;63.87;;
4323;SDS011;2175;51.018;6.994;2024-02-28T03:57:51;134.30;;;65.13;;
4323;SDS011;2175;51.018;6.994;2024-02-28T04:00:18;136.80;;;64.67;;
4323;SDS011;2175;51.018;6.994;2024-02-28T04:02:44;141.67;;;64.57;;
4323;SDS011;2175;51.018;6.994;2024-02-28T04:05:10;119.97;;;61.43;;
4323;SDS011;2175;51.018;6.994;2024-02-28T04:07:37;132.60;;;64.23;;
4323;SDS011;2175;51.018;6.994;2024-02-28T04:10:03;130.60;;;64.73;;
4323;SDS011;2175;51.018;6.994;2024-02-28T04:12:30;131.73;;;64.47;;
4323;SDS011;2175;51.018;6.994;2024-02-28T04:14:56;127.93;;;63.10;;
4323;SDS011;2175;51.018;6.994;2024-02-28T04:17:22;130.17;;;62.60;;
4323;SDS011;2175;51.018;6.994;2024-02-28T04:19:48;121.33;;;63.10;;
4323;SDS011;2175;51.018;6.994;2024-02-28T04:22:14;138.37;;;66.07;;
4323;SDS011;2175;51.018;6.994;2024-02-28T04:24:40;130.73;;;63.00;;
4323;SDS011;2175;51.018;6.994;2024-02-28T04:27:06;135.73;;;63.80;;
4323;SDS011;2175;51.018;6.994;2024-02-28T04:29:34;141.77;;;68.20;;
4323;SDS011;2175;51.018;6.994;2024-02-28T04:32:00;137.23;;;66.80;;
4323;SDS011;2175;51.018;6.994;2024-02-28T04:34:26;139.77;;;66.73;;
4323;SDS011;2175;51.018;6.994;2024-02-28T04:36:52;148.87;;;70.77;;
4323;SDS011;2175;51.018;6.994;2024-02-28T04:39:18;151.83;;;72.13;;
4323;SDS011;2175;51.018;6.994;2024-02-28T04:41:44;142.37;;;69.77;;
4323;SDS011;2175;51.018;6.994;2024-02-28T04:44:10;150.80;;;69.97;;
4323;SDS011;2175;51.018;6.994;2024-02-28T04:46:37;152.47;;;69.93;;
4323;SDS011;2175;51.018;6.994;2024-02-28T04:49:03;151.77;;;73.67;;
4323;SDS011;2175;51.018;6.994;2024-02-28T04:51:29;158.63;;;76.90;;
4323;SDS011;2175;51.018;6.994;2024-02-28T04:53:55;155.63;;;72.97;;
4323;SDS011;2175;51.018;6.994;2024-02-28T04:56:21;151.40;;;71.80;;
4323;SDS011;2175;51.018;6.994;2024-02-28T04:58:47;147.90;;;70.50;;
4323;SDS011;2175;51.018;6.994;2024-02-28T05:01:13;154.07;;;72.43;;
4323;SDS011;2175;51.018;6.994;2024-02-28T05:03:39;161.77;;;70.33;;
4323;SDS011;2175;51.018;6.994;2024-02-28T05:06:05;154.00;;;71.23;;
4323;SDS011;2175;51.018;6.994;2024-02-28T05:08:31;148.10;;;67.10;;
4323;SDS011;2175;51.018;6.994;2024-02-28T05:10:57;145.77;;;71.00;;
4323;SDS011;2175;51.018;6.994;2024-02-28T05:13:23;152.43;;;71.67;;
4323;SDS011;2175;51.018;6.994;2024-02-28T05:15:49;148.57;;;70.60;;
4323;SDS011;2175;51.018;6.994;2024-02-28T05:18:15;145.23;;;67.43;;
4323;SDS011;2175;51.018;6.994;2024-02-28T05:20:42;143.60;;;69.73;;
4323;SDS011;2175;51.018;6.994;2024-02-28T05:23:07;150.27;;;69.67;;
4323;SDS011;2175;51.018;6.994;2024-02-28T05:25:33;133.97;;;64.93;;
4323;SDS011;2175;51.018;6.994;2024-02-28T05:27:59;130.43;;;64.30;;
4323;SDS011;2175;51.018;6.994;2024-02-28T05:30:25;135.63;;;66.07;;
4323;SDS011;2175;51.018;6.994;2024-02-28T05:32:51;149.40;;;67.23;;
4323;SDS011;2175;51.018;6.994;2024-02-28T05:35:17;139.17;;;65.87;;
4323;SDS011;2175;51.018;6.994;2024-02-28T05:37:44;150.33;;;69.97;;
4323;SDS011;2175;51.018;6.994;2024-02-28T05:40:12;145.83;;;67.40;;
4323;SDS011;2175;51.018;6.994;2024-02-28T05:42:38;139.80;;;65.47;;
4323;SDS011;2175;51.018;6.994;2024-02-28T05:45:05;138.60;;;65.23;;
4323;SDS011;2175;51.018;6.994;2024-02-28T05:47:31;143.70;;;66.30;;
4323;SDS011;2175;51.018;6.994;2024-02-28T05:49:57;131.00;;;63.63;;
4323;SDS011;2175;51.018;6.994;2024-02-28T05:52:23;134.37;;;62.53;;
4323;SDS011;2175;51.018;6.994;2024-02-28T05:54:50;140.30;;;65.03;;
4323;SDS011;2175;51.018;6.994;2024-02-28T05:57:16;134.13;;;64.23;;
4323;SDS011;2175;51.018;6.994;2024-02-28T05:59:42;134.63;;;63.67;;
4323;SDS011;2175;51.018;6.994;2024-02-28T06:02:08;150.20;;;62.63;;
4323;SDS011;2175;51.018;6.994;2024-02-28T06:04:34;130.70;;;63.30;;
4323;SDS011;2175;51.018;6.994;2024-02-28T06:07:00;130.80;;;63.30;;
4323;SDS011;2175;51.018;6.994;2024-02-28T06:09:26;136.13;;;63.23;;
4323;SDS011;2175;51.018;6.994;2024-02-28T06:11:53;126.37;;;60.53;;
4323;SDS011;2175;51.018;6.994;2024-02-28T06:14:19;130.97;;;61.57;;
4323;SDS011;2175;51.018;6.994;2024-02-28T06:16:48;121.13;;;59.30;;
4323;SDS011;2175;51.018;6.994;2024-02-28T06:19:14;133.83;;;62.17;;
4323;SDS011;2175;51.018;6.994;2024-02-28T06:21:40;134.27;;;61.43;;
4323;SDS011;2175;51.018;6.994;2024-02-28T06:24:06;139.93;;;61.17;;
4323;SDS011;2175;51.018;6.994;2024-02-28T06:26:32;140.33;;;62.60;;
4323;SDS011;2175;51.018;6.994;2024-02-28T06:28:58;136.67;;;62.57;;
4323;SDS011;2175;51.018;6.994;2024-02-28T06:31:27;137.00;;;62.67;;
4323;SDS011;2175;51.018;6.994;2024-02-28T06:33:56;128.10;;;59.30;;
4323;SDS011;2175;51.018;6.994;2024-02-28T06:36:22;132.87;;;60.13;;
4323;SDS011;2175;51.018;6.994;2024-02-28T06:38:48;132.80;;;61.67;;
4323;SDS011;2175;51.018;6.994;2024-02-28T06:41:14;132.70;;;65.33;;
4323;SDS011;2175;51.018;6.994;2024-02-28T06:43:41;134.67;;;61.63;;
4323;SDS011;2175;51.018;6.994;2024-02-28T06:46:07;134.33;;;61.90;;
4323;SDS011;2175;51.018;6.994;2024-02-28T06:48:34;129.27;;;62.80;;
4323;SDS011;2175;51.018;6.994;2024-02-28T06:51:00;144.07;;;62.17;;
4323;SDS011;2175;51.018;6.994;2024-02-28T06:53:26;120.20;;;58.27;;
4323;SDS011;2175;51.018;6.994;2024-02-28T06:55:52;128.50;;;60.93;;
4323;SDS011;2175;51.018;6.994;2024-02-28T06:58:18;128.90;;;59.97;;
4323;SDS011;2175;51.018;6.994;2024-02-28T07:00:44;128.23;;;56.83;;
4323;SDS011;2175;51.018;6.994;2024-02-28T07:03:10;125.10;;;57.10;;
4323;SDS011;2175;51.018;6.994;2024-02-28T07:05:36;132.73;;;57.80;;
4323;SDS011;2175;51.018;6.994;2024-02-28T07:08:02;140.87;;;61.30;;
4323;SDS011;2175;51.018;6.994;2024-02-28T07:10:28;130.13;;;60.97;;
4323;SDS011;2175;51.018;6.994;2024-02-28T07:12:54;133.33;;;61.63;;
4323;SDS011;2175;51.018;6.994;2024-02-28T07:15:20;124.97;;;57.93;;
4323;SDS011;2175;51.018;6.994;2024-02-28T07:17:47;130.10;;;60.10;;
4323;SDS011;2175;51.018;6.994;2024-02-28T07:20:13;132.20;;;60.40;;
4323;SDS011;2175;51.018;6.994;2024-02-28T07:22:39;125.30;;;60.43;;
4323;SDS011;2175;51.018;6.994;2024-02-28T07:25:07;125.47;;;56.73;;
4323;SDS011;2175;51.018;6.994;2024-02-28T07:27:33;125.13;;;58.70;;
4323;SDS011;2175;51.018;6.994;2024-02-28T07:30:00;129.50;;;57.57;;
4323;SDS011;2175;51.018;6.994;2024-02-28T07:32:28;135.83;;;60.30;;
4323;SDS011;2175;51.018;6.994;2024-02-28T07:34:59;127.87;;;58.57;;
4323;SDS011;2175;51.018;6.994;2024-02-28T07:37:25;126.30;;;61.80;;
4323;SDS011;2175;51.018;6.994;2024-02-28T07:39:51;129.67;;;58.37;;
4323;SDS011;2175;51.018;6.994;2024-02-28T07:42:17;122.97;;;57.33;;
4323;SDS011;2175;51.018;6.994;2024-02-28T07:44:43;130.90;;;61.13;;
4323;SDS011;2175;51.018;6.994;2024-02-28T07:47:09;129.93;;;58.53;;
4323;SDS011;2175;51.018;6.994;2024-02-28T07:49:35;132.13;;;58.60;;
4323;SDS011;2175;51.018;6.994;2024-02-28T07:52:01;131.33;;;61.10;;
4323;SDS011;2175;51.018;6.994;2024-02-28T07:54:27;139.10;;;62.77;;
4323;SDS011;2175;51.018;6.994;2024-02-28T07:56:53;130.23;;;60.23;;
4323;SDS011;2175;51.018;6.994;2024-02-28T07:59:19;137.73;;;61.27;;
4323;SDS011;2175;51.018;6.994;2024-02-28T08:01:45;128.70;;;60.43;;
4323;SDS011;2175;51.018;6.994;2024-02-28T08:04:11;132.40;;;59.50;;
4323;SDS011;2175;51.018;6.994;2024-02-28T08:06:37;123.60;;;57.93;;
4323;SDS011;2175;51.018;6.994;2024-02-28T08:09:03;130.30;;;61.90;;
4323;SDS011;2175;51.018;6.994;2024-02-28T08:11:29;130.70;;;60.47;;
4323;SDS011;2175;51.018;6.994;2024-02-28T08:13:55;128.63;;;60.33;;
4323;SDS011;2175;51.018;6.994;2024-02-28T08:16:21;126.40;;;61.17;;
4323;SDS011;2175;51.018;6.994;2024-02-28T08:18:47;131.47;;;59.70;;
4323;SDS011;2175;51.018;6.994;2024-02-28T08:21:13;135.10;;;61.63;;
4323;SDS011;2175;51.018;6.994;2024-02-28T08:23:39;129.80;;;60.60;;
4323;SDS011;2175;51.018;6.994;2024-02-28T08:26:05;129.47;;;60.10;;
4323;SDS011;2175;51.018;6.994;2024-02-28T08:28:31;132.43;;;60.63;;
4323;SDS011;2175;51.018;6.994;2024-02-28T08:30:57;124.97;;;59.50;;
4323;SDS011;2175;51.018;6.994;2024-02-28T08:33:24;126.97;;;60.70;;
4323;SDS011;2175;51.018;6.994;2024-02-28T08:35:50;131.43;;;59.90;;
4323;SDS011;2175;51.018;6.994;2024-02-28T08:38:16;127.93;;;60.00;;
4323;SDS011;2175;51.018;6.994;2024-02-28T08:40:42;130.23;;;61.00;;
4323;SDS011;2175;51.018;6.994;2024-02-28T08:43:08;137.37;;;62.37;;
4323;SDS011;2175;51.018;6.994;2024-02-28T08:45:34;131.33;;;61.43;;
4323;SDS011;2175;51.018;6.994;2024-02-28T08:48:00;130.30;;;62.23;;
4323;SDS011;2175;51.018;6.994;2024-02-28T08:50:27;126.07;;;59.90;;
4323;SDS011;2175;51.018;6.994;2024-02-28T08:52:54;138.87;;;62.50;;
4323;SDS011;2175;51.018;6.994;2024-02-28T08:55:20;112.27;;;57.57;;
4323;SDS011;2175;51.018;6.994;2024-02-28T08:57:47;115.50;;;56.57;;
4323;SDS011;2175;51.018;6.994;2024-02-28T09:00:13;117.57;;;58.47;;
4323;SDS011;2175;51.018;6.994;2024-02-28T09:02:40;109.37;;;54.43;;
4323;SDS011;2175;51.018;6.994;2024-02-28T09:05:06;112.63;;;56.37;;
4323;SDS011;2175;51.018;6.994;2024-02-28T09:07:34;120.70;;;57.73;;
4323;SDS011;2175;51.018;6.994;2024-02-28T09:10:03;116.60;;;60.20;;
4323;SDS011;2175;51.018;6.994;2024-02-28T09:12:30;109.63;;;55.97;;
4323;SDS011;2175;51.018;6.994;2024-02-28T09:14:55;103.00;;;52.87;;
4323;SDS011;2175;51.018;6.994;2024-02-28T09:17:22;104.57;;;54.80;;
4323;SDS011;2175;51.018;6.994;2024-02-28T09:19:48;110.20;;;55.23;;
4323;SDS011;2175;51.018;6.994;2024-02-28T09:22:14;103.00;;;55.20;;
4323;SDS011;2175;51.018;6.994;2024-02-28T09:24:42;105.20;;;55.00;;
4323;SDS011;2175;51.018;6.994;2024-02-28T09:27:08;95.63;;;53.70;;
4323;SDS011;2175;51.018;6.994;2024-02-28T09:29:34;100.90;;;54.87;;
4323;SDS011;2175;51.018;6.994;2024-02-28T09:32:00;97.83;;;53.00;;
4323;SDS011;2175;51.018;6.994;2024-02-28T09:34:26;101.17;;;52.20;;
4323;SDS011;2175;51.018;6.994;2024-02-28T09:36:52;97.07;;;52.30;;
4323;SDS011;2175;51.018;6.994;2024-02-28T09:39:18;100.03;;;52.73;;
4323;SDS011;2175;51.018;6.994;2024-02-28T09:41:46;104.90;;;53.30;;
4323;SDS011;2175;51.018;6.994;2024-02-28T09:44:14;96.90;;;52.50;;
4323;SDS011;2175;51.018;6.994;2024-02-28T09:46:41;98.00;;;52.27;;
4323;SDS011;2175;51.018;6.994;2024-02-28T09:49:07;95.47;;;51.40;;
4323;SDS011;2175;51.018;6.994;2024-02-28T09:51:35;93.10;;;50.40;;
4323;SDS011;2175;51.018;6.994;2024-02-28T09:54:04;99.60;;;55.40;;
4323;SDS011;2175;51.018;6.994;2024-02-28T09:56:31;91.50;;;51.60;;
4323;SDS011;2175;51.018;6.994;2024-02-28T09:58:57;91.47;;;51.30;;
4323;SDS011;2175;51.018;6.994;2024-02-28T10:01:23;88.43;;;50.63;;
4323;SDS011;2175;51.018;6.994;2024-02-28T10:03:50;87.10;;;48.43;;
4323;SDS011;2175;51.018;6.994;2024-02-28T10:06:20;84.80;;;49.10;;
4323;SDS011;2175;51.018;6.994;2024-02-28T10:08:46;88.00;;;49.77;;
4323;SDS011;2175;51.018;6.994;2024-02-28T10:11:19;81.60;;;47.23;;
4323;SDS011;2175;51.018;6.994;2024-02-28T10:13:46;85.27;;;49.00;;
4323;SDS011;2175;51.018;6.994;2024-02-28T10:16:12;86.10;;;46.87;;
4323;SDS011;2175;51.018;6.994;2024-02-28T10:18:40;78.00;;;44.93;;
4323;SDS011;2175;51.018;6.994;2024-02-28T10:21:06;80.97;;;48.50;;
4323;SDS011;2175;51.018;6.994;2024-02-28T10:23:32;83.30;;;48.33;;
4323;SDS011;2175;51.018;6.994;2024-02-28T10:26:00;74.37;;;43.60;;
4323;SDS011;2175;51.018;6.994;2024-02-28T10:28:26;80.00;;;45.97;;
4323;SDS011;2175;51.018;6.994;2024-02-28T10:30:53;77.93;;;47.63;;
4323;SDS011;2175;51.018;6.994;2024-02-28T10:33:19;78.93;;;45.40;;
4323;SDS011;2175;51.018;6.994;2024-02-28T10:35:45;79.67;;;45.50;;
4323;SDS011;2175;51.018;6.994;2024-02-28T10:38:12;83.07;;;48.17;;
4323;SDS011;2175;51.018;6.994;2024-02-28T10:40:39;75.63;;;46.27;;
4323;SDS011;2175;51.018;6.994;2024-02-28T10:43:07;89.13;;;48.80;;
4323;SDS011;2175;51.018;6.994;2024-02-28T10:45:35;77.73;;;46.07;;
4323;SDS011;2175;51.018;6.994;2024-02-28T10:48:02;77.60;;;46.27;;
4323;SDS011;2175;51.018;6.994;2024-02-28T10:50:28;74.53;;;44.17;;
4323;SDS011;2175;51.018;6.994;2024-02-28T10:52:54;79.10;;;46.50;;
4323;SDS011;2175;51.018;6.994;2024-02-28T10:55:22;80.87;;;47.27;;
4323;SDS011;2175;51.018;6.994;2024-02-28T10:57:50;79.33;;;46.17;;
4323;SDS011;2175;51.018;6.994;2024-02-28T11:00:21;76.13;;;46.40;;
4323;SDS011;2175;51.018;6.994;2024-02-28T11:02:47;84.07;;;45.33;;
4323;SDS011;2175;51.018;6.994;2024-02-28T11:05:14;78.47;;;45.07;;
4323;SDS011;2175;51.018;6.994;2024-02-28T11:07:43;78.47;;;45.50;;
4323;SDS011;2175;51.018;6.994;2024-02-28T11:10:09;73.30;;;41.47;;
4323;SDS011;2175;51.018;6.994;2024-02-28T11:12:35;73.63;;;42.70;;
4323;SDS011;2175;51.018;6.994;2024-02-28T11:15:03;65.53;;;40.30;;
4323;SDS011;2175;51.018;6.994;2024-02-28T11:17:32;73.97;;;42.03;;
4323;SDS011;2175;51.018;6.994;2024-02-28T11:19:58;74.07;;;42.37;;
4323;SDS011;2175;51.018;6.994;2024-02-28T11:22:27;80.40;;;44.60;;
4323;SDS011;2175;51.018;6.994;2024-02-28T11:24:54;71.87;;;41.83;;
4323;SDS011;2175;51.018;6.994;2024-02-28T11:27:20;71.60;;;41.93;;
4323;SDS011;2175;51.018;6.994;2024-02-28T11:29:47;69.97;;;41.87;;
4323;SDS011;2175;51.018;6.994;2024-02-28T11:32:14;74.13;;;43.50;;
4323;SDS011;2175;51.018;6.994;2024-02-28T11:34:41;72.90;;;42.73;;
4323;SDS011;2175;51.018;6.994;2024-02-28T11:37:08;70.73;;;42.40;;
4323;SDS011;2175;51.018;6.994;2024-02-28T11:39:34;71.93;;;42.30;;
4323;SDS011;2175;51.018;6.994;2024-02-28T11:42:16;71.90;;;41.70;;
4323;SDS011;2175;51.018;6.994;2024-02-28T11:44:42;66.73;;;41.40;;
4323;SDS011;2175;51.018;6.994;2024-02-28T11:47:08;64.83;;;40.07;;
4323;SDS011;2175;51.018;6.994;2024-02-28T11:49:38;67.67;;;41.23;;
4323;SDS011;2175;51.018;6.994;2024-02-28T11:52:04;65.63;;;40.90;;
4323;SDS011;2175;51.018;6.994;2024-02-28T11:54:30;68.43;;;40.90;;
4323;SDS011;2175;51.018;6.994;2024-02-28T11:56:56;66.67;;;40.57;;
4323;SDS011;2175;51.018;6.994;2024-02-28T11:59:22;61.97;;;39.50;;
4323;SDS011;2175;51.018;6.994;2024-02-28T12:01:48;62.50;;;38.57;;
4323;SDS011;2175;51.018;6.994;2024-02-28T12:04:15;68.03;;;39.27;;
4323;SDS011;2175;51.018;6.994;2024-02-28T12:06:41;71.17;;;39.93;;
4323;SDS011;2175;51.018;6.994;2024-02-28T12:09:08;68.30;;;40.87;;
4323;SDS011;2175;51.018;6.994;2024-02-28T12:11:34;63.53;;;38.33;;
4323;SDS011;2175;51.018;6.994;2024-02-28T12:14:04;66.63;;;39.30;;
4323;SDS011;2175;51.018;6.994;2024-02-28T12:16:33;65.37;;;38.67;;
4323;SDS011;2175;51.018;6.994;2024-02-28T12:18:59;64.20;;;38.33;;
4323;SDS011;2175;51.018;6.994;2024-02-28T12:21:25;62.30;;;37.53;;
4323;SDS011;2175;51.018;6.994;2024-02-28T12:23:52;67.40;;;37.67;;
4323;SDS011;2175;51.018;6.994;2024-02-28T12:26:18;66.33;;;38.63;;
4323;SDS011;2175;51.018;6.994;2024-02-28T12:28:44;63.50;;;37.47;;
4323;SDS011;2175;51.018;6.994;2024-02-28T12:31:11;63.60;;;38.00;;
4323;SDS011;2175;51.018;6.994;2024-02-28T12:33:38;64.43;;;38.33;;
4323;SDS011;2175;51.018;6.994;2024-02-28T12:36:04;69.93;;;40.77;;
4323;SDS011;2175;51.018;6.994;2024-02-28T12:38:30;60.83;;;38.10;;
4323;SDS011;2175;51.018;6.994;2024-02-28T12:40:56;64.30;;;38.73;;
4323;SDS011;2175;51.018;6.994;2024-02-28T12:43:23;62.00;;;38.60;;
4323;SDS011;2175;51.018;6.994;2024-02-28T12:45:50;57.77;;;36.50;;
4323;SDS011;2175;51.018;6.994;2024-02-28T12:48:16;59.53;;;36.10;;
4323;SDS011;2175;51.018;6.994;2024-02-28T12:50:43;56.40;;;34.77;;
4323;SDS011;2175;51.018;6.994;2024-02-28T12:53:09;58.90;;;36.83;;
4323;SDS011;2175;51.018;6.994;2024-02-28T12:55:35;59.93;;;36.20;;
4323;SDS011;2175;51.018;6.994;2024-02-28T12:58:01;60.70;;;37.80;;
4323;SDS011;2175;51.018;6.994;2024-02-28T13:00:30;54.83;;;34.70;;
4323;SDS011;2175;51.018;6.994;2024-02-28T13:02:56;59.70;;;35.70;;
4323;SDS011;2175;51.018;6.994;2024-02-28T13:05:22;53.80;;;33.47;;
4323;SDS011;2175;51.018;6.994;2024-02-28T13:07:48;51.27;;;32.10;;
4323;SDS011;2175;51.018;6.994;2024-02-28T13:10:14;54.60;;;31.97;;
4323;SDS011;2175;51.018;6.994;2024-02-28T13:12:40;50.97;;;29.77;;
4323;SDS011;2175;51.018;6.994;2024-02-28T13:15:06;47.27;;;29.73;;
4323;SDS011;2175;51.018;6.994;2024-02-28T13:17:33;47.10;;;29.90;;
4323;SDS011;2175;51.018;6.994;2024-02-28T13:19:59;45.67;;;27.57;;
4323;SDS011;2175;51.018;6.994;2024-02-28T13:22:25;49.73;;;31.93;;
4323;SDS011;2175;51.018;6.994;2024-02-28T13:24:51;49.20;;;29.10;;
4323;SDS011;2175;51.018;6.994;2024-02-28T13:27:17;51.07;;;30.10;;
4323;SDS011;2175;51.018;6.994;2024-02-28T13:29:43;50.27;;;31.13;;
4323;SDS011;2175;51.018;6.994;2024-02-28T13:32:09;50.80;;;29.97;;
4323;SDS011;2175;51.018;6.994;2024-02-28T13:34:35;48.27;;;31.33;;
4323;SDS011;2175;51.018;6.994;2024-02-28T13:37:01;49.87;;;27.53;;
4323;SDS011;2175;51.018;6.994;2024-02-28T13:39:27;39.17;;;24.53;;
4323;SDS011;2175;51.018;6.994;2024-02-28T13:41:54;41.83;;;23.80;;
4323;SDS011;2175;51.018;6.994;2024-02-28T13:44:20;38.20;;;23.27;;
4323;SDS011;2175;51.018;6.994;2024-02-28T13:46:46;39.10;;;24.20;;
4323;SDS011;2175;51.018;6.994;2024-02-28T13:49:13;42.17;;;25.80;;
4323;SDS011;2175;51.018;6.994;2024-02-28T13:51:39;40.40;;;26.00;;
4323;SDS011;2175;51.018;6.994;2024-02-28T13:54:05;40.60;;;26.03;;
4323;SDS011;2175;51.018;6.994;2024-02-28T13:56:31;44.23;;;25.90;;
4323;SDS011;2175;51.018;6.994;2024-02-28T13:58:59;33.20;;;22.00;;
4323;SDS011;2175;51.018;6.994;2024-02-28T14:01:25;37.03;;;22.00;;
4323;SDS011;2175;51.018;6.994;2024-02-28T14:03:53;32.50;;;20.67;;
4323;SDS011;2175;51.018;6.994;2024-02-28T14:06:19;38.93;;;21.07;;
4323;SDS011;2175;51.018;6.994;2024-02-28T14:08:45;35.20;;;20.87;;
4323;SDS011;2175;51.018;6.994;2024-02-28T14:11:11;32.83;;;19.67;;
4323;SDS011;2175;51.018;6.994;2024-02-28T14:13:37;37.53;;;21.63;;
4323;SDS011;2175;51.018;6.994;2024-02-28T14:16:04;33.67;;;21.00;;
4323;SDS011;2175;51.018;6.994;2024-02-28T14:18:30;37.23;;;21.57;;
4323;SDS011;2175;51.018;6.994;2024-02-28T14:20:56;36.83;;;21.70;;
4323;SDS011;2175;51.018;6.994;2024-02-28T14:23:23;34.77;;;22.67;;
4323;SDS011;2175;51.018;6.994;2024-02-28T14:25:48;32.57;;;19.80;;
4323;SDS011;2175;51.018;6.994;2024-02-28T14:28:14;30.40;;;18.63;;
4323;SDS011;2175;51.018;6.994;2024-02-28T14:30:42;30.80;;;19.20;;
4323;SDS011;2175;51.018;6.994;2024-02-28T14:33:08;30.30;;;19.20;;
4323;SDS011;2175;51.018;6.994;2024-02-28T14:35:34;31.63;;;19.27;;
4323;SDS011;2175;51.018;6.994;2024-02-28T14:38:04;32.73;;;21.40;;